Time;durP1;ratioP1;P1;durP2;ratioP2;P2;SDS_P1;SDS_P2;PMS_P1;PMS_P2;Temp;Humidity;BMP_temperature;BMP_pressure;BME280_temperature;BME280_humidity;BME280_pressure;Samples;Min_cycle;Max_cycle;Signal;HPM_P1;HPM_P2
2023/05/30 00:02:16;;;;;;;4.60;3.50;;;;;;;15.31;60.42;93756.16;4948125;28;20391;-73
2023/05/30 00:04:42;;;;;;;3.45;3.00;;;;;;;15.30;59.95;93741.22;4945857;28;20382;-74
2023/05/30 00:07:07;;;;;;;3.88;2.75;;;;;;;15.33;60.06;93750.47;4945721;28;20374;-73
2023/05/30 00:09:33;;;;;;;6.50;3.17;;;;;;;15.27;59.84;93744.59;4940113;28;20051;-73
2023/05/30 00:12:00;;;;;;;3.55;2.70;;;;;;;15.25;60.23;93754.88;4940732;28;20038;-72
2023/05/30 00:14:26;;;;;;;4.70;2.83;;;;;;;15.21;60.28;93745.16;4947257;28;20047;-72
2023/05/30 00:16:52;;;;;;;6.05;3.10;;;;;;;15.23;60.22;93754.44;4945988;28;20122;-73
2023/05/30 00:19:19;;;;;;;6.38;3.10;;;;;;;15.22;60.24;93766.28;4945231;28;20038;-73
2023/05/30 00:21:45;;;;;;;5.10;3.15;;;;;;;15.16;60.58;93775.66;4946291;28;20031;-73
2023/05/30 00:24:11;;;;;;;7.43;3.42;;;;;;;15.12;60.66;93765.97;4946623;28;20026;-73
2023/05/30 00:26:37;;;;;;;3.63;3.10;;;;;;;15.10;60.82;93755.63;4946312;28;20086;-74
2023/05/30 00:29:03;;;;;;;9.60;3.15;;;;;;;15.17;60.53;93757.69;4942055;28;20040;-73
2023/05/30 00:31:30;;;;;;;5.20;2.83;;;;;;;15.07;60.40;93745.56;4948920;28;20031;-72
2023/05/30 00:33:56;;;;;;;5.38;3.58;;;;;;;14.89;60.39;93729.06;4948488;28;20103;-73
2023/05/30 00:36:21;;;;;;;4.55;3.55;;;;;;;14.61;60.39;93693.47;4949436;28;20046;-73
2023/05/30 00:38:46;;;;;;;4.80;2.50;;;;;;;15.14;60.56;93769.88;4948238;28;20078;-73
2023/05/30 00:41:12;;;;;;;5.72;2.83;;;;;;;15.04;60.37;93757.00;4946092;28;20622;-72
2023/05/30 00:43:37;;;;;;;4.32;2.72;;;;;;;15.02;60.83;93769.94;4946866;28;20023;-72
2023/05/30 00:46:04;;;;;;;4.75;2.92;;;;;;;14.96;60.59;93760.59;4946280;28;20559;-72
2023/05/30 00:48:29;;;;;;;4.80;3.20;;;;;;;14.98;60.72;93774.41;4950186;28;20051;-72
2023/05/30 00:50:55;;;;;;;4.68;2.80;;;;;;;14.86;60.98;93758.41;4945858;28;20090;-73
2023/05/30 00:53:22;;;;;;;3.67;2.75;;;;;;;14.98;60.56;93769.06;4948347;28;20041;-72
2023/05/30 00:55:49;;;;;;;3.15;2.60;;;;;;;14.88;61.07;93769.53;4948265;28;20035;-72
2023/05/30 00:58:16;;;;;;;5.25;2.83;;;;;;;14.90;60.90;93778.03;4948210;28;20542;-73
2023/05/30 01:00:41;;;;;;;3.50;2.67;;;;;;;14.82;61.07;93765.53;4947495;28;20639;-73
2023/05/30 01:03:08;;;;;;;4.35;2.60;;;;;;;14.89;60.87;93779.91;4945933;28;20066;-72
2023/05/30 01:05:33;;;;;;;6.63;2.95;;;;;;;14.73;61.27;93764.91;4945679;28;20820;-73
2023/05/30 01:07:59;;;;;;;3.65;3.13;;;;;;;14.85;61.36;93775.59;4962136;28;20039;-72
2023/05/30 01:10:24;;;;;;;5.07;2.90;;;;;;;14.87;61.10;93770.66;4946435;28;20034;-73
2023/05/30 01:13:22;;;;;;;4.50;2.92;;;;;;;14.87;61.27;93757.28;4948521;28;20732;-72
2023/05/30 01:15:53;;;;;;;3.50;3.20;;;;;;;14.85;60.96;93762.19;4948512;28;20070;-73
2023/05/30 01:18:39;;;;;;;4.70;3.08;;;;;;;14.89;61.06;93765.75;4959258;28;20046;-71
2023/05/30 01:21:10;;;;;;;3.75;2.60;;;;;;;14.77;60.86;93749.72;4946137;28;20413;-73
2023/05/30 01:24:06;;;;;;;3.83;3.15;;;;;;;14.78;60.97;93764.66;4946214;28;20066;-72
2023/05/30 01:26:46;;;;;;;6.30;3.65;;;;;;;14.72;61.20;93760.66;4946940;28;20296;-74
2023/05/30 01:29:17;;;;;;;4.55;3.42;;;;;;;14.63;61.23;93735.94;4940236;28;20040;-73
2023/05/30 01:31:44;;;;;;;5.75;3.33;;;;;;;14.69;61.76;93762.13;4927026;28;20065;-74
2023/05/30 01:34:11;;;;;;;5.32;3.65;;;;;;;14.61;61.54;93749.69;4946803;28;20386;-74
2023/05/30 01:36:37;;;;;;;3.92;3.45;;;;;;;14.67;61.75;93759.00;4942253;28;20303;-75
2023/05/30 01:39:02;;;;;;;4.15;2.97;;;;;;;14.66;62.08;93754.00;4944333;28;20039;-74
2023/05/30 01:41:40;;;;;;;8.32;3.10;;;;;;;14.74;61.64;93761.91;4945193;28;20043;-75
2023/05/30 01:44:19;;;;;;;5.40;3.70;;;;;;;14.68;61.28;93760.56;4949441;28;20059;-74
2023/05/30 01:47:01;;;;;;;6.60;3.30;;;;;;;14.54;61.52;93739.53;4945526;28;20619;-72
2023/05/30 01:49:43;;;;;;;5.75;3.90;;;;;;;14.62;61.42;93742.44;4944258;28;20425;-73
2023/05/30 01:52:17;;;;;;;6.30;3.83;;;;;;;14.67;61.69;93753.66;4946662;28;20461;-74
2023/05/30 01:54:47;;;;;;;3.85;3.45;;;;;;;14.54;61.56;93746.78;4951240;28;20070;-73
2023/05/30 01:57:15;;;;;;;4.65;3.65;;;;;;;14.50;61.43;93743.22;4959064;28;20354;-73
2023/05/30 01:59:42;;;;;;;4.72;3.67;;;;;;;14.50;62.31;93765.41;4947473;28;20070;-75
2023/05/30 02:02:09;;;;;;;7.47;4.40;;;;;;;14.45;62.46;93762.97;4940376;28;20540;-74
2023/05/30 02:04:35;;;;;;;6.32;4.57;;;;;;;14.51;62.58;93764.28;4926870;28;20033;-72
2023/05/30 02:07:02;;;;;;;5.75;3.85;;;;;;;14.47;62.59;93750.00;4948438;28;20151;-73
2023/05/30 02:09:27;;;;;;;6.00;4.25;;;;;;;14.58;62.14;93775.22;4944511;28;20166;-73
2023/05/30 02:11:53;;;;;;;8.27;5.07;;;;;;;14.60;61.93;93775.66;4947751;28;20077;-73
2023/05/30 02:14:19;;;;;;;5.65;4.43;;;;;;;14.52;62.65;93784.56;4944537;28;20039;-74
2023/05/30 02:16:45;;;;;;;6.10;4.05;;;;;;;14.51;62.06;93766.97;4946484;28;20043;-74
2023/05/30 02:19:12;;;;;;;8.95;4.45;;;;;;;14.56;61.98;93774.78;4946476;28;20023;-73
2023/05/30 02:21:38;;;;;;;5.35;4.03;;;;;;;14.64;61.88;93781.13;4947358;28;20215;-74
2023/05/30 02:24:04;;;;;;;6.80;3.78;;;;;;;14.63;62.19;93776.09;4946421;28;20568;-73
2023/05/30 02:26:29;;;;;;;5.85;4.72;;;;;;;14.55;62.35;93761.75;4946017;28;20047;-74
2023/05/30 02:28:55;;;;;;;4.28;3.63;;;;;;;14.51;62.01;93761.63;4945497;28;20089;-73
2023/05/30 02:31:20;;;;;;;6.70;3.90;;;;;;;14.61;62.29;93773.78;4945735;28;20036;-73
2023/05/30 02:33:46;;;;;;;6.68;5.30;;;;;;;14.52;62.28;93765.81;4944248;28;20422;-73
2023/05/30 02:36:12;;;;;;;6.60;4.30;;;;;;;14.50;62.07;93762.72;4944422;28;20035;-73
2023/05/30 02:38:37;;;;;;;8.43;4.60;;;;;;;14.63;61.87;93779.53;4944467;28;20478;-74
2023/05/30 02:41:03;;;;;;;6.40;4.78;;;;;;;14.56;61.81;93758.72;4947090;28;20709;-73
2023/05/30 02:43:28;;;;;;;8.75;4.63;;;;;;;14.60;62.44;93770.31;4946534;28;20041;-73
2023/05/30 02:45:54;;;;;;;6.72;4.85;;;;;;;14.58;62.28;93772.53;4945648;28;20035;-74
2023/05/30 02:48:20;;;;;;;6.50;4.43;;;;;;;14.52;62.39;93778.44;4946672;28;20478;-73
2023/05/30 02:50:45;;;;;;;11.07;5.07;;;;;;;14.48;62.31;93772.97;4945292;28;20485;-73
2023/05/30 02:53:11;;;;;;;5.18;4.30;;;;;;;14.35;62.37;93752.72;4949582;28;20035;-73
2023/05/30 02:55:36;;;;;;;7.65;4.53;;;;;;;14.50;62.19;93770.75;4943470;28;20031;-73
2023/05/30 02:58:04;;;;;;;5.90;4.32;;;;;;;14.55;62.26;93775.13;4948087;28;20426;-73
2023/05/30 03:00:30;;;;;;;8.43;4.43;;;;;;;14.55;62.04;93773.22;4945160;28;20027;-73
2023/05/30 03:02:55;;;;;;;9.38;4.03;;;;;;;14.47;62.34;93755.34;4947571;28;20046;-73
2023/05/30 03:05:21;;;;;;;3.95;3.28;;;;;;;14.43;62.53;93759.81;4944144;28;20073;-73
2023/05/30 03:07:46;;;;;;;6.35;3.63;;;;;;;14.44;62.64;93755.25;4946488;28;20509;-74
2023/05/30 03:10:12;;;;;;;8.68;3.78;;;;;;;14.49;61.99;93760.38;4947458;28;20029;-72
2023/05/30 03:12:37;;;;;;;7.32;3.15;;;;;;;14.41;61.97;93763.97;4944632;28;20529;-72
2023/05/30 03:15:05;;;;;;;4.78;3.38;;;;;;;14.34;62.32;93756.50;4946058;28;20065;-73
2023/05/30 03:17:32;;;;;;;8.82;3.42;;;;;;;14.38;62.69;93767.31;4947844;28;20616;-73
2023/05/30 03:19:57;;;;;;;3.55;3.17;;;;;;;14.37;62.80;93761.19;4949987;28;20042;-73
2023/05/30 03:22:23;;;;;;;3.38;2.90;;;;;;;14.35;62.38;93757.28;4950774;28;20481;-73
2023/05/30 03:24:48;;;;;;;6.70;3.45;;;;;;;14.44;62.60;93766.75;4950484;28;20042;-73
2023/05/30 03:27:14;;;;;;;5.38;3.53;;;;;;;14.45;62.80;93773.66;4947148;28;20584;-73
2023/05/30 03:29:40;;;;;;;5.78;3.30;;;;;;;14.35;63.02;93768.78;4947200;28;20505;-74
2023/05/30 03:32:06;;;;;;;3.85;3.50;;;;;;;14.46;63.47;93775.22;4948071;28;20038;-72
2023/05/30 03:34:31;;;;;;;4.03;3.25;;;;;;;14.37;63.29;93760.41;4949194;28;20053;-74
2023/05/30 03:36:57;;;;;;;5.43;3.50;;;;;;;14.42;63.35;93766.28;4949679;28;20196;-73
2023/05/30 03:39:23;;;;;;;5.03;3.30;;;;;;;14.50;63.39;93775.31;4950056;28;20039;-74
2023/05/30 03:41:48;;;;;;;6.18;3.88;;;;;;;14.51;63.20;93777.66;4949142;28;20090;-72
2023/05/30 03:44:14;;;;;;;5.57;3.42;;;;;;;14.36;63.26;93770.34;4949218;28;20049;-73
2023/05/30 03:46:40;;;;;;;4.60;2.97;;;;;;;14.38;63.43;93783.34;4948276;28;20035;-72
2023/05/30 03:49:05;;;;;;;4.40;3.53;;;;;;;14.34;63.52;93772.56;4949659;28;20511;-72
2023/05/30 03:51:31;;;;;;;8.93;3.63;;;;;;;14.53;63.37;93794.19;4949004;28;20093;-74
2023/05/30 03:53:56;;;;;;;5.47;3.15;;;;;;;14.47;63.10;93776.00;4949859;28;20042;-73
2023/05/30 03:56:22;;;;;;;5.32;3.30;;;;;;;14.42;63.16;93766.28;4948218;28;20065;-73
2023/05/30 03:58:47;;;;;;;4.65;3.90;;;;;;;14.66;63.36;93799.53;4948011;28;20379;-73
2023/05/30 04:01:13;;;;;;;5.70;3.22;;;;;;;14.61;63.20;93792.50;4949452;28;20090;-73
2023/05/30 04:03:38;;;;;;;5.43;3.60;;;;;;;14.68;63.18;93798.03;4947497;28;20046;-73
2023/05/30 04:06:06;;;;;;;4.30;3.78;;;;;;;14.73;63.43;93799.72;4947939;28;20592;-74
2023/05/30 04:08:31;;;;;;;5.47;3.85;;;;;;;14.72;63.38;93798.94;4947024;28;20039;-73
2023/05/30 04:10:57;;;;;;;7.28;3.90;;;;;;;14.74;63.92;93803.94;4946621;28;20039;-73
2023/05/30 04:13:22;;;;;;;5.15;3.33;;;;;;;14.73;64.26;93811.19;4948684;28;20034;-73
2023/05/30 04:15:48;;;;;;;5.60;4.03;;;;;;;14.74;64.66;93811.97;4947220;28;20035;-73
2023/05/30 04:18:13;;;;;;;5.63;3.45;;;;;;;14.76;64.36;93812.44;4948877;28;20490;-73
2023/05/30 04:20:39;;;;;;;6.80;3.38;;;;;;;14.75;64.58;93808.19;4946962;28;20263;-72
2023/05/30 04:23:04;;;;;;;9.25;3.40;;;;;;;14.80;64.63;93821.34;4949436;28;20106;-73
2023/05/30 04:25:30;;;;;;;4.28;3.72;;;;;;;14.88;64.43;93817.75;4946980;28;20514;-73
2023/05/30 04:27:56;;;;;;;7.47;3.42;;;;;;;14.80;64.59;93816.00;4946469;28;20030;-73
2023/05/30 04:30:21;;;;;;;3.63;3.33;;;;;;;14.83;64.74;93807.28;4947048;28;20034;-72
2023/05/30 04:32:47;;;;;;;4.20;3.50;;;;;;;15.00;64.74;93831.88;4947352;28;20055;-73
2023/05/30 04:35:16;;;;;;;5.78;3.72;;;;;;;15.09;65.21;93823.72;4945557;28;20058;-73
2023/05/30 04:37:44;;;;;;;6.18;4.57;;;;;;;15.19;66.20;93825.91;4948478;28;20113;-73
2023/05/30 04:40:13;;;;;;;9.90;4.85;;;;;;;15.24;66.17;93803.44;4950228;28;20519;-73
2023/05/30 04:42:40;;;;;;;5.65;5.05;;;;;;;15.44;65.69;93811.31;4946007;28;20410;-73
2023/05/30 04:45:06;;;;;;;8.05;6.18;;;;;;;14.66;64.92;93719.22;4949088;28;20196;-73
2023/05/30 04:47:31;;;;;;;8.63;6.53;;;;;;;15.09;65.40;93796.91;4944829;28;20036;-73
2023/05/30 04:50:00;;;;;;;9.65;6.45;;;;;;;15.41;65.15;93833.38;4949021;28;20062;-74
2023/05/30 04:52:26;;;;;;;9.98;6.20;;;;;;;15.12;65.60;93816.88;4948088;28;20566;-73
2023/05/30 04:54:52;;;;;;;6.78;5.50;;;;;;;15.60;65.16;93831.97;4949008;28;20022;-72
2023/05/30 04:57:18;;;;;;;7.68;5.40;;;;;;;15.87;63.52;93823.09;4949250;28;20040;-72
2023/05/30 04:59:44;;;;;;;7.18;5.40;;;;;;;16.17;62.23;93839.56;4946245;28;20037;-73
2023/05/30 05:02:10;;;;;;;6.88;5.20;;;;;;;15.83;62.49;93836.44;4962247;28;20413;-72
2023/05/30 05:04:36;;;;;;;7.38;5.88;;;;;;;16.02;61.40;93810.81;4952112;28;20105;-73
2023/05/30 05:07:01;;;;;;;6.43;4.57;;;;;;;16.43;61.28;93847.09;4947847;28;20103;-73
2023/05/30 05:09:26;;;;;;;8.73;5.40;;;;;;;16.53;60.27;93844.63;4945997;28;20121;-72
2023/05/30 05:11:56;;;;;;;6.93;5.93;;;;;;;16.36;59.97;93828.13;4946112;28;20039;-73
2023/05/30 05:14:21;;;;;;;8.55;4.68;;;;;;;16.73;59.52;93845.47;4946436;28;20058;-74
2023/05/30 05:16:47;;;;;;;5.38;4.70;;;;;;;16.47;59.69;93858.69;4948855;28;20042;-72
2023/05/30 05:19:13;;;;;;;7.90;5.68;;;;;;;16.60;59.23;93857.44;4948939;28;20029;-72
2023/05/30 05:21:38;;;;;;;6.47;4.68;;;;;;;16.64;59.33;93860.97;4948378;28;20133;-73
2023/05/30 05:24:04;;;;;;;6.03;4.93;;;;;;;16.78;59.55;93861.28;4944024;28;20502;-72
2023/05/30 05:26:29;;;;;;;13.13;5.00;;;;;;;16.77;59.90;93857.06;4945960;28;20383;-74
2023/05/30 05:28:56;;;;;;;6.50;4.82;;;;;;;16.84;59.96;93861.81;4946711;28;20078;-72
2023/05/30 05:31:21;;;;;;;9.07;5.70;;;;;;;16.79;60.82;93865.53;4944991;28;20446;-73
2023/05/30 05:33:47;;;;;;;9.77;5.60;;;;;;;16.88;60.15;93862.66;4947138;28;20055;-73
2023/05/30 05:36:13;;;;;;;8.32;5.22;;;;;;;16.86;60.14;93868.41;4947067;28;20042;-72
2023/05/30 05:38:38;;;;;;;7.47;5.25;;;;;;;16.82;60.58;93870.22;4946905;28;20034;-73
2023/05/30 05:41:03;;;;;;;8.52;5.25;;;;;;;16.71;60.00;93869.22;4946262;28;20113;-73
2023/05/30 05:43:29;;;;;;;7.63;5.38;;;;;;;16.60;60.22;93857.44;4946553;28;20055;-72
2023/05/30 05:45:55;;;;;;;8.25;5.28;;;;;;;16.78;59.98;93866.66;4947934;28;20031;-71
2023/05/30 05:48:21;;;;;;;7.07;5.15;;;;;;;16.91;60.12;93870.03;4946805;28;20035;-72
2023/05/30 05:50:46;;;;;;;6.90;5.00;;;;;;;16.95;60.98;93860.13;4945651;28;20054;-73
2023/05/30 05:53:12;;;;;;;7.90;4.72;;;;;;;17.00;60.01;93876.75;4947080;28;20039;-74
2023/05/30 05:55:37;;;;;;;8.85;5.35;;;;;;;17.09;60.19;93871.97;4945508;28;20058;-72
2023/05/30 05:58:02;;;;;;;5.68;4.72;;;;;;;16.99;59.58;93864.44;4951262;28;20109;-73
2023/05/30 06:00:29;;;;;;;6.60;5.22;;;;;;;16.66;60.02;93856.06;4940571;28;20035;-72
2023/05/30 06:02:55;;;;;;;5.70;4.43;;;;;;;17.03;59.32;93862.63;4947655;28;20782;-72
2023/05/30 06:05:20;;;;;;;9.75;4.50;;;;;;;17.23;57.83;93879.56;4945886;28;20053;-73
2023/05/30 06:07:45;;;;;;;8.25;5.65;;;;;;;16.94;59.17;93872.78;4946224;28;20602;-72
2023/05/30 06:10:11;;;;;;;11.90;5.13;;;;;;;16.92;60.30;93863.50;4947467;28;20030;-72
2023/05/30 06:12:37;;;;;;;8.02;5.50;;;;;;;16.94;59.44;93880.06;4944670;28;20055;-72
2023/05/30 06:15:02;;;;;;;6.10;5.03;;;;;;;17.02;59.72;93874.50;4945794;28;20039;-72
2023/05/30 06:17:29;;;;;;;6.50;5.38;;;;;;;16.89;60.29;93864.22;4946182;28;20359;-72
2023/05/30 06:19:55;;;;;;;11.88;6.90;;;;;;;16.79;60.27;93840.59;4947100;28;20065;-74
2023/05/30 06:22:21;;;;;;;31.85;7.40;;;;;;;17.04;61.16;93872.25;4945554;28;20031;-72
2023/05/30 06:24:48;;;;;;;8.70;6.97;;;;;;;16.62;61.79;93865.94;4944998;28;20042;-72
2023/05/30 06:27:14;;;;;;;7.22;6.10;;;;;;;16.52;61.93;93882.59;4943009;28;20403;-73
2023/05/30 06:29:41;;;;;;;10.32;5.90;;;;;;;16.06;63.62;93887.56;4949936;28;20045;-73
2023/05/30 06:32:07;;;;;;;8.35;5.60;;;;;;;16.29;62.52;93880.47;4945413;28;20112;-72
2023/05/30 06:34:32;;;;;;;9.07;6.55;;;;;;;16.23;63.63;93878.41;4946383;28;20481;-72
2023/05/30 06:36:57;;;;;;;8.95;6.18;;;;;;;16.19;63.40;93890.94;4946996;28;20019;-72
2023/05/30 06:39:23;;;;;;;7.97;6.40;;;;;;;16.25;64.21;93895.72;4941097;28;20063;-73
2023/05/30 06:41:48;;;;;;;13.73;8.15;;;;;;;16.25;64.12;93898.41;4937780;28;20393;-72
2023/05/30 06:44:14;;;;;;;11.18;7.47;;;;;;;16.67;62.36;93906.72;4946315;28;20035;-72
2023/05/30 06:46:40;;;;;;;12.93;7.65;;;;;;;16.28;62.46;93889.66;4943928;28;20031;-71
2023/05/30 06:49:06;;;;;;;12.43;7.97;;;;;;;16.74;61.82;93898.03;4947265;28;20054;-71
2023/05/30 06:51:31;;;;;;;13.45;8.13;;;;;;;16.59;62.28;93904.22;4948998;28;20153;-72
2023/05/30 06:53:57;;;;;;;22.50;8.95;;;;;;;16.73;62.22;93891.09;4944008;28;20642;-72
2023/05/30 06:56:23;;;;;;;19.42;9.85;;;;;;;16.49;62.86;93910.88;4952559;28;20556;-72
2023/05/30 06:58:48;;;;;;;14.98;10.27;;;;;;;16.45;64.22;93903.88;4949596;28;20031;-71
2023/05/30 07:01:13;;;;;;;15.00;9.18;;;;;;;16.68;63.33;93902.91;4948668;28;20080;-72
2023/05/30 07:03:39;;;;;;;14.68;9.48;;;;;;;16.55;63.58;93893.41;4950311;28;20049;-70
2023/05/30 07:06:05;;;;;;;14.00;9.77;;;;;;;16.56;62.85;93912.97;4963237;28;20547;-72
2023/05/30 07:08:30;;;;;;;31.38;11.68;;;;;;;16.58;62.81;93913.38;4950346;28;20066;-73
2023/05/30 07:10:56;;;;;;;19.20;10.75;;;;;;;16.84;61.63;93910.94;4948182;28;20074;-72
2023/05/30 07:13:21;;;;;;;16.67;11.27;;;;;;;16.93;61.16;93914.22;4949610;28;20923;-72
2023/05/30 07:15:47;;;;;;;17.88;10.27;;;;;;;17.09;61.71;93914.94;4949761;28;20320;-73
2023/05/30 07:18:12;;;;;;;16.42;10.30;;;;;;;17.05;62.28;93910.63;4950085;28;20420;-73
2023/05/30 07:20:38;;;;;;;17.10;10.43;;;;;;;16.87;62.25;93904.06;4947474;28;20038;-73
2023/05/30 07:23:03;;;;;;;21.27;10.68;;;;;;;17.06;60.92;93912.94;4951824;28;20031;-73
2023/05/30 07:25:29;;;;;;;17.92;10.68;;;;;;;17.10;61.07;93913.84;4947641;28;20034;-72
2023/05/30 07:27:55;;;;;;;19.55;9.90;;;;;;;17.09;61.97;93912.28;4949092;28;20035;-72
2023/05/30 07:30:21;;;;;;;16.92;11.05;;;;;;;16.63;63.40;93929.22;4947934;28;20406;-73
2023/05/30 07:32:47;;;;;;;14.70;7.85;;;;;;;16.61;62.23;93928.81;4950564;28;20066;-73
2023/05/30 07:35:12;;;;;;;16.45;8.90;;;;;;;16.58;61.93;93914.16;4949392;28;20066;-73
2023/05/30 07:37:37;;;;;;;13.25;9.15;;;;;;;16.72;61.95;93917.19;4948571;28;20062;-72
2023/05/30 07:40:10;;;;;;;13.75;9.80;;;;;;;16.69;62.80;93909.06;4948355;28;20027;-72
2023/05/30 07:42:38;;;;;;;17.55;10.10;;;;;;;17.02;60.99;93917.47;4947012;28;20043;-73
2023/05/30 07:45:05;;;;;;;20.15;9.98;;;;;;;17.05;61.80;93916.78;4949152;28;20058;-73
2023/05/30 07:47:30;;;;;;;18.67;10.55;;;;;;;16.86;62.59;93918.66;4944470;28;20070;-74
2023/05/30 07:49:56;;;;;;;18.83;10.18;;;;;;;16.67;63.11;93904.03;4949798;28;20594;-73
2023/05/30 07:52:21;;;;;;;17.48;9.35;;;;;;;16.61;62.60;93910.03;4949724;28;20381;-72
2023/05/30 07:54:46;;;;;;;16.52;8.98;;;;;;;16.68;62.70;93927.06;4956265;28;20031;-73
2023/05/30 07:57:13;;;;;;;13.13;8.80;;;;;;;16.84;62.69;93916.31;4947204;28;20139;-73
2023/05/30 07:59:41;;;;;;;15.10;9.65;;;;;;;16.81;62.04;93925.06;4948252;28;20044;-74
2023/05/30 08:02:06;;;;;;;20.00;10.15;;;;;;;16.86;62.04;93922.13;4948160;28;20046;-73
2023/05/30 08:04:32;;;;;;;19.60;10.18;;;;;;;17.01;62.30;93921.28;4954888;28;20059;-73
2023/05/30 08:06:57;;;;;;;19.38;11.25;;;;;;;17.38;60.24;93919.03;4948143;28;20521;-73
2023/05/30 08:09:22;;;;;;;19.20;9.55;;;;;;;17.58;60.76;93911.75;4949791;28;20034;-73
2023/05/30 08:11:48;;;;;;;12.30;5.82;;;;;;;17.57;57.65;93907.50;4948062;28;20154;-74
2023/05/30 08:14:13;;;;;;;15.45;7.00;;;;;;;17.43;58.93;93921.47;4947822;28;20078;-74
2023/05/30 08:16:39;;;;;;;17.02;7.25;;;;;;;17.36;60.00;93915.13;4948255;28;20030;-74
2023/05/30 08:19:04;;;;;;;10.85;6.55;;;;;;;17.48;58.54;93909.63;4948230;28;20031;-74
2023/05/30 08:21:31;;;;;;;14.38;6.97;;;;;;;17.39;58.14;93914.44;4940766;28;20524;-73
2023/05/30 08:23:57;;;;;;;10.43;5.88;;;;;;;17.53;57.96;93920.91;4942902;28;20035;-74
2023/05/30 08:26:25;;;;;;;8.25;5.32;;;;;;;17.58;57.94;93930.59;4950843;28;20461;-73
2023/05/30 08:28:51;;;;;;;13.18;5.60;;;;;;;17.67;57.78;93912.31;4945995;28;20465;-73
2023/05/30 08:31:17;;;;;;;7.78;5.13;;;;;;;17.78;55.88;93916.00;4948369;28;20033;-74
2023/05/30 08:33:43;;;;;;;10.77;6.03;;;;;;;17.40;57.00;93906.03;4942663;28;20642;-74
2023/05/30 08:36:08;;;;;;;9.75;5.65;;;;;;;17.49;56.81;93919.28;4945454;28;20039;-73
2023/05/30 08:38:33;;;;;;;8.50;4.22;;;;;;;17.36;56.74;93905.16;4947937;28;20061;-73
2023/05/30 08:40:59;;;;;;;6.57;4.25;;;;;;;17.06;56.86;93904.88;4944110;28;20555;-72
2023/05/30 08:43:24;;;;;;;9.13;4.93;;;;;;;17.37;55.82;93895.19;4947373;28;20549;-74
2023/05/30 08:45:53;;;;;;;10.93;4.90;;;;;;;17.73;57.42;93920.88;4947055;28;20038;-73
2023/05/30 08:48:20;;;;;;;10.05;6.57;;;;;;;17.94;55.94;93915.94;4950580;28;20047;-73
2023/05/30 08:50:46;;;;;;;10.32;7.50;;;;;;;17.92;55.64;93894.75;4959052;28;20363;-73
2023/05/30 08:53:22;;;;;;;13.32;7.35;;;;;;;17.83;56.71;93917.63;4949240;28;20452;-74
2023/05/30 08:56:05;;;;;;;8.82;7.43;;;;;;;17.49;58.46;93924.66;4946486;28;20480;-73
2023/05/30 08:58:39;;;;;;;10.35;6.90;;;;;;;17.69;56.96;93918.13;4950123;28;20461;-73
2023/05/30 09:01:06;;;;;;;8.50;6.13;;;;;;;17.79;56.61;93917.56;4952307;28;20446;-73
2023/05/30 09:03:34;;;;;;;12.50;6.72;;;;;;;17.56;60.73;93919.41;4944963;28;20163;-73
2023/05/30 09:06:00;;;;;;;14.82;7.57;;;;;;;17.75;59.35;93921.28;4944532;28;20040;-74
2023/05/30 09:08:27;;;;;;;10.77;6.47;;;;;;;17.13;61.43;93907.78;4946253;28;20691;-73
2023/05/30 09:10:56;;;;;;;10.45;7.60;;;;;;;17.17;61.05;93913.22;4931744;28;20342;-73
2023/05/30 09:13:21;;;;;;;8.60;6.28;;;;;;;17.34;62.03;93928.19;4954858;28;20057;-73
2023/05/30 09:15:47;;;;;;;11.23;8.52;;;;;;;17.36;60.53;93925.88;4951142;28;20039;-72
2023/05/30 09:18:13;;;;;;;9.25;6.50;;;;;;;17.32;61.14;93930.41;4953876;28;20521;-72
2023/05/30 09:20:39;;;;;;;10.50;5.60;;;;;;;17.58;60.75;93923.31;4948282;28;20154;-75
2023/05/30 09:23:06;;;;;;;11.65;7.45;;;;;;;17.43;61.52;93929.53;4949456;28;20074;-73
2023/05/30 09:25:45;;;;;;;11.88;8.30;;;;;;;17.24;60.46;93928.72;4956353;28;20026;-72
2023/05/30 09:28:12;;;;;;;11.93;7.78;;;;;;;17.12;62.54;93927.69;4958160;28;20027;-72
2023/05/30 09:31:01;;;;;;;13.45;8.90;;;;;;;17.18;62.03;93894.06;4947300;28;20039;-72
2023/05/30 09:33:49;;;;;;;13.52;8.00;;;;;;;17.55;60.83;93912.50;4961959;28;20580;-72
2023/05/30 09:36:25;;;;;;;14.43;7.53;;;;;;;17.63;61.51;93918.78;4946112;28;20102;-73
2023/05/30 09:39:09;;;;;;;10.38;7.93;;;;;;;17.70;61.24;93916.97;4945464;28;20364;-72
2023/05/30 09:41:34;;;;;;;9.45;6.85;;;;;;;17.79;59.77;93909.50;4945688;28;20055;-72
2023/05/30 09:44:04;;;;;;;13.23;7.13;;;;;;;17.76;60.43;93915.56;4948378;28;20039;-72
2023/05/30 09:46:30;;;;;;;10.68;5.53;;;;;;;17.71;60.76;93910.47;4944838;28;20034;-72
2023/05/30 09:48:56;;;;;;;9.95;6.38;;;;;;;17.21;61.76;93908.69;4951170;28;20599;-72
2023/05/30 09:51:25;;;;;;;12.10;6.13;;;;;;;17.32;62.26;93919.66;4964446;28;20585;-72
2023/05/30 09:54:04;;;;;;;16.05;9.50;;;;;;;17.41;61.34;93917.56;4950047;28;20379;-72
2023/05/30 09:56:39;;;;;;;11.18;7.45;;;;;;;17.60;61.71;93920.25;4947441;28;20462;-73
2023/05/30 09:59:07;;;;;;;10.95;8.00;;;;;;;17.82;60.27;93906.09;4948108;28;20052;-74
2023/05/30 10:01:37;;;;;;;13.88;5.75;;;;;;;17.57;62.92;93915.59;4953532;28;20037;-73
2023/05/30 10:04:13;;;;;;;14.00;9.32;;;;;;;17.37;61.36;93912.09;4948219;28;20073;-73
2023/05/30 10:06:41;;;;;;;10.18;7.80;;;;;;;17.53;61.84;93898.59;4947161;28;20066;-73
2023/05/30 10:09:08;;;;;;;9.98;5.70;;;;;;;17.84;63.04;93886.91;4945667;28;20034;-73
2023/05/30 10:11:35;;;;;;;9.70;5.25;;;;;;;17.70;61.65;93883.94;4944636;28;20050;-74
2023/05/30 10:14:01;;;;;;;7.95;5.68;;;;;;;17.89;61.34;93903.50;4944166;28;20081;-73
2023/05/30 10:16:29;;;;;;;9.90;5.35;;;;;;;18.19;59.82;93897.53;4946446;28;20149;-73
2023/05/30 10:18:56;;;;;;;8.52;6.32;;;;;;;18.13;58.42;93885.53;4945197;28;20330;-73
2023/05/30 10:21:25;;;;;;;9.05;5.35;;;;;;;18.16;60.68;93900.94;4945969;28;20059;-72
2023/05/30 10:23:53;;;;;;;10.80;6.72;;;;;;;17.70;60.10;93902.78;4945590;28;20589;-72
2023/05/30 10:26:20;;;;;;;12.10;8.23;;;;;;;17.18;60.11;93869.88;4943545;28;20050;-72
2023/05/30 10:28:47;;;;;;;17.52;7.85;;;;;;;17.73;59.77;93883.22;4944700;28;20489;-74
2023/05/30 10:31:14;;;;;;;11.25;7.72;;;;;;;17.74;59.09;93892.88;4945886;28;20035;-74
2023/05/30 10:33:41;;;;;;;10.90;6.40;;;;;;;17.71;58.82;93886.28;4943832;28;20441;-73
2023/05/30 10:36:08;;;;;;;9.93;5.68;;;;;;;17.80;59.09;93868.00;4945632;28;20030;-72
2023/05/30 10:38:51;;;;;;;7.28;5.00;;;;;;;17.76;59.92;93880.59;4945529;28;20393;-72
2023/05/30 10:41:27;;;;;;;8.13;4.68;;;;;;;18.00;56.79;93863.38;4942173;28;20461;-73
2023/05/30 10:44:17;;;;;;;11.45;4.07;;;;;;;18.15;58.72;93872.47;4941158;28;21319;-73
2023/05/30 10:46:53;;;;;;;9.35;4.68;;;;;;;17.98;57.46;93877.22;4945794;28;20162;-73
2023/05/30 10:49:22;;;;;;;9.38;5.05;;;;;;;17.83;57.55;93878.06;4942154;28;20035;-72
2023/05/30 10:52:04;;;;;;;9.32;5.00;;;;;;;17.87;59.07;93868.13;4944483;28;20464;-73
2023/05/30 10:54:32;;;;;;;8.00;4.03;;;;;;;17.44;59.47;93871.16;4945837;28;20369;-73
2023/05/30 10:56:58;;;;;;;9.05;5.40;;;;;;;17.41;58.76;93848.44;4952771;28;20039;-73
2023/05/30 10:59:24;;;;;;;8.57;5.07;;;;;;;17.56;59.26;93861.03;4948460;28;20101;-73
2023/05/30 11:02:06;;;;;;;12.52;4.88;;;;;;;17.34;58.20;93847.53;4944746;28;20046;-73
2023/05/30 11:04:34;;;;;;;7.05;3.88;;;;;;;17.25;55.36;93855.81;4945736;28;20048;-73
2023/05/30 11:07:03;;;;;;;6.72;3.97;;;;;;;17.24;57.56;93856.94;4943652;28;20035;-73
2023/05/30 11:09:28;;;;;;;4.45;3.70;;;;;;;17.26;58.61;93843.16;4943851;28;20047;-73
2023/05/30 11:11:59;;;;;;;8.27;3.67;;;;;;;17.40;57.60;93840.75;4944989;28;20053;-73
2023/05/30 11:14:32;;;;;;;6.35;3.17;;;;;;;17.48;59.22;93843.22;4944577;28;20047;-73
2023/05/30 11:17:04;;;;;;;10.30;3.65;;;;;;;17.37;59.66;93841.44;4943657;28;21013;-73
2023/05/30 11:19:42;;;;;;;6.82;2.90;;;;;;;17.16;57.04;93837.19;4945010;28;20019;-73
2023/05/30 11:22:15;;;;;;;3.88;3.00;;;;;;;17.68;56.54;93809.00;4945516;28;20830;-73
2023/05/30 11:24:42;;;;;;;6.43;2.92;;;;;;;17.91;56.98;93817.84;4947139;28;20090;-73
2023/05/30 11:27:13;;;;;;;8.82;3.33;;;;;;;18.21;54.35;93811.81;4952442;28;20573;-74
2023/05/30 11:29:56;;;;;;;5.03;3.17;;;;;;;17.84;54.06;93798.91;4942885;28;20592;-73
2023/05/30 11:32:25;;;;;;;7.72;3.60;;;;;;;17.99;55.55;93803.41;4952342;28;20521;-72
2023/05/30 11:35:01;;;;;;;4.20;3.08;;;;;;;18.15;53.87;93794.41;4945713;28;20386;-73